sensor_id;sensor_type;location;lat;lon;timestamp;temperature;humidity
15700;DHT22;7950;42.744;23.174;2023-07-24T00:01:58;18.30;99.90
15700;DHT22;7950;42.744;23.174;2023-07-24T00:04:27;18.30;99.90
15700;DHT22;7950;42.744;23.174;2023-07-24T00:06:58;18.20;99.90
15700;DHT22;7950;42.744;23.174;2023-07-24T00:09:27;18.10;99.90
15700;DHT22;7950;42.744;23.174;2023-07-24T00:11:56;18.10;99.90
15700;DHT22;7950;42.744;23.174;2023-07-24T00:14:24;18.10;99.90
15700;DHT22;7950;42.744;23.174;2023-07-24T00:16:53;18.10;99.90
15700;DHT22;7950;42.744;23.174;2023-07-24T00:19:23;18.10;99.90
15700;DHT22;7950;42.744;23.174;2023-07-24T00:21:51;18.10;99.90
15700;DHT22;7950;42.744;23.174;2023-07-24T00:24:20;18.10;99.90
15700;DHT22;7950;42.744;23.174;2023-07-24T00:26:49;18.10;99.90
15700;DHT22;7950;42.744;23.174;2023-07-24T00:29:17;18.20;99.90
15700;DHT22;7950;42.744;23.174;2023-07-24T00:31:46;18.20;99.90
15700;DHT22;7950;42.744;23.174;2023-07-24T00:34:15;18.20;99.90
15700;DHT22;7950;42.744;23.174;2023-07-24T00:36:45;18.20;99.90
15700;DHT22;7950;42.744;23.174;2023-07-24T00:39:14;18.10;99.90
15700;DHT22;7950;42.744;23.174;2023-07-24T00:41:43;18.10;99.90
15700;DHT22;7950;42.744;23.174;2023-07-24T00:44:12;18.10;99.90
15700;DHT22;7950;42.744;23.174;2023-07-24T00:46:40;18.20;99.90
15700;DHT22;7950;42.744;23.174;2023-07-24T00:49:09;18.10;99.90
15700;DHT22;7950;42.744;23.174;2023-07-24T00:51:38;18.10;99.90
15700;DHT22;7950;42.744;23.174;2023-07-24T00:54:11;18.00;99.90
15700;DHT22;7950;42.744;23.174;2023-07-24T00:56:44;18.00;99.90
15700;DHT22;7950;42.744;23.174;2023-07-24T00:59:14;17.90;99.90
15700;DHT22;7950;42.744;23.174;2023-07-24T01:01:44;18.00;99.90
15700;DHT22;7950;42.744;23.174;2023-07-24T01:04:14;18.00;99.90
15700;DHT22;7950;42.744;23.174;2023-07-24T01:06:43;18.00;99.90
15700;DHT22;7950;42.744;23.174;2023-07-24T01:09:13;18.10;99.90
15700;DHT22;7950;42.744;23.174;2023-07-24T01:11:46;18.10;99.90
15700;DHT22;7950;42.744;23.174;2023-07-24T01:14:21;18.10;99.90
15700;DHT22;7950;42.744;23.174;2023-07-24T01:16:55;18.10;99.90
15700;DHT22;7950;42.744;23.174;2023-07-24T01:19:35;18.10;99.90
15700;DHT22;7950;42.744;23.174;2023-07-24T01:22:14;18.10;99.90
15700;DHT22;7950;42.744;23.174;2023-07-24T01:25:00;18.10;99.90
15700;DHT22;7950;42.744;23.174;2023-07-24T01:27:42;18.10;99.90
15700;DHT22;7950;42.744;23.174;2023-07-24T01:30:12;18.10;99.90
15700;DHT22;7950;42.744;23.174;2023-07-24T01:32:42;18.00;99.90
15700;DHT22;7950;42.744;23.174;2023-07-24T01:35:11;18.00;99.90
15700;DHT22;7950;42.744;23.174;2023-07-24T01:37:41;17.90;99.90
15700;DHT22;7950;42.744;23.174;2023-07-24T01:40:12;17.90;99.90
15700;DHT22;7950;42.744;23.174;2023-07-24T01:42:43;17.90;99.90
15700;DHT22;7950;42.744;23.174;2023-07-24T01:45:12;17.90;99.90
15700;DHT22;7950;42.744;23.174;2023-07-24T01:47:40;17.80;99.90
15700;DHT22;7950;42.744;23.174;2023-07-24T01:50:10;17.80;99.90
15700;DHT22;7950;42.744;23.174;2023-07-24T01:52:39;17.90;99.90
15700;DHT22;7950;42.744;23.174;2023-07-24T01:55:08;17.90;99.90
15700;DHT22;7950;42.744;23.174;2023-07-24T01:57:37;17.90;99.90
15700;DHT22;7950;42.744;23.174;2023-07-24T02:00:08;17.80;99.90
15700;DHT22;7950;42.744;23.174;2023-07-24T02:02:38;17.80;99.90
15700;DHT22;7950;42.744;23.174;2023-07-24T02:05:07;17.90;99.90
15700;DHT22;7950;42.744;23.174;2023-07-24T02:07:36;17.90;99.90
15700;DHT22;7950;42.744;23.174;2023-07-24T02:10:06;17.90;99.90
15700;DHT22;7950;42.744;23.174;2023-07-24T02:12:35;17.80;99.90
15700;DHT22;7950;42.744;23.174;2023-07-24T02:15:04;17.80;99.90
15700;DHT22;7950;42.744;23.174;2023-07-24T02:17:35;17.80;99.90
15700;DHT22;7950;42.744;23.174;2023-07-24T02:20:05;17.70;99.90
15700;DHT22;7950;42.744;23.174;2023-07-24T02:22:34;17.70;99.90
15700;DHT22;7950;42.744;23.174;2023-07-24T02:25:03;17.70;99.90
15700;DHT22;7950;42.744;23.174;2023-07-24T02:27:33;17.70;99.90
15700;DHT22;7950;42.744;23.174;2023-07-24T02:30:02;17.70;99.90
15700;DHT22;7950;42.744;23.174;2023-07-24T02:32:33;17.70;99.90
15700;DHT22;7950;42.744;23.174;2023-07-24T02:35:02;17.70;99.90
15700;DHT22;7950;42.744;23.174;2023-07-24T02:37:32;17.70;99.90
15700;DHT22;7950;42.744;23.174;2023-07-24T02:40:00;17.70;99.90
15700;DHT22;7950;42.744;23.174;2023-07-24T02:42:29;17.70;99.90
15700;DHT22;7950;42.744;23.174;2023-07-24T02:44:58;17.70;99.90
15700;DHT22;7950;42.744;23.174;2023-07-24T02:47:26;17.80;99.90
15700;DHT22;7950;42.744;23.174;2023-07-24T02:49:56;17.70;99.90
15700;DHT22;7950;42.744;23.174;2023-07-24T02:52:25;17.70;99.90
15700;DHT22;7950;42.744;23.174;2023-07-24T02:54:54;17.60;99.90
15700;DHT22;7950;42.744;23.174;2023-07-24T02:57:22;17.60;99.90
15700;DHT22;7950;42.744;23.174;2023-07-24T02:59:51;17.60;99.90
15700;DHT22;7950;42.744;23.174;2023-07-24T03:02:20;17.50;99.90
15700;DHT22;7950;42.744;23.174;2023-07-24T03:04:49;17.40;99.90
15700;DHT22;7950;42.744;23.174;2023-07-24T03:07:19;17.40;99.90
15700;DHT22;7950;42.744;23.174;2023-07-24T03:09:48;17.50;99.90
15700;DHT22;7950;42.744;23.174;2023-07-24T03:12:19;17.50;99.90
15700;DHT22;7950;42.744;23.174;2023-07-24T03:14:47;17.60;99.90
15700;DHT22;7950;42.744;23.174;2023-07-24T03:17:16;17.60;99.90
15700;DHT22;7950;42.744;23.174;2023-07-24T03:19:47;17.60;99.90
15700;DHT22;7950;42.744;23.174;2023-07-24T03:22:16;17.60;99.90
15700;DHT22;7950;42.744;23.174;2023-07-24T03:24:46;17.50;99.90
15700;DHT22;7950;42.744;23.174;2023-07-24T03:27:15;17.60;99.90
15700;DHT22;7950;42.744;23.174;2023-07-24T03:29:44;17.60;99.90
15700;DHT22;7950;42.744;23.174;2023-07-24T03:32:13;17.60;99.90
15700;DHT22;7950;42.744;23.174;2023-07-24T03:34:42;17.70;99.90
15700;DHT22;7950;42.744;23.174;2023-07-24T03:37:11;17.60;99.90
15700;DHT22;7950;42.744;23.174;2023-07-24T03:39:40;17.60;99.90
15700;DHT22;7950;42.744;23.174;2023-07-24T03:42:10;17.60;99.90
15700;DHT22;7950;42.744;23.174;2023-07-24T03:44:40;17.60;99.90
15700;DHT22;7950;42.744;23.174;2023-07-24T03:47:09;17.60;99.90
15700;DHT22;7950;42.744;23.174;2023-07-24T03:49:38;17.70;99.90
15700;DHT22;7950;42.744;23.174;2023-07-24T03:52:07;17.80;99.90
15700;DHT22;7950;42.744;23.174;2023-07-24T03:54:35;17.90;99.90
15700;DHT22;7950;42.744;23.174;2023-07-24T03:57:04;17.80;99.90
15700;DHT22;7950;42.744;23.174;2023-07-24T03:59:36;17.80;99.90
15700;DHT22;7950;42.744;23.174;2023-07-24T04:02:04;17.90;99.90
15700;DHT22;7950;42.744;23.174;2023-07-24T04:04:36;18.00;99.90
15700;DHT22;7950;42.744;23.174;2023-07-24T04:07:06;18.00;99.90
15700;DHT22;7950;42.744;23.174;2023-07-24T04:09:34;18.10;99.90
15700;DHT22;7950;42.744;23.174;2023-07-24T04:12:04;18.10;99.90
15700;DHT22;7950;42.744;23.174;2023-07-24T04:14:35;18.00;99.90
15700;DHT22;7950;42.744;23.174;2023-07-24T04:17:04;18.00;99.90
15700;DHT22;7950;42.744;23.174;2023-07-24T04:19:34;17.90;99.90
15700;DHT22;7950;42.744;23.174;2023-07-24T04:22:03;17.80;99.90
15700;DHT22;7950;42.744;23.174;2023-07-24T04:24:32;17.80;99.90
15700;DHT22;7950;42.744;23.174;2023-07-24T04:27:01;17.80;99.90
15700;DHT22;7950;42.744;23.174;2023-07-24T04:29:29;17.90;99.90
15700;DHT22;7950;42.744;23.174;2023-07-24T04:31:59;17.90;99.90
15700;DHT22;7950;42.744;23.174;2023-07-24T04:34:28;18.00;99.90
15700;DHT22;7950;42.744;23.174;2023-07-24T04:36:57;18.10;99.90
15700;DHT22;7950;42.744;23.174;2023-07-24T04:39:26;18.20;99.90
15700;DHT22;7950;42.744;23.174;2023-07-24T04:41:54;18.30;99.90
15700;DHT22;7950;42.744;23.174;2023-07-24T04:44:23;18.40;99.90
15700;DHT22;7950;42.744;23.174;2023-07-24T04:46:52;18.70;99.90
15700;DHT22;7950;42.744;23.174;2023-07-24T04:49:24;18.80;99.90
15700;DHT22;7950;42.744;23.174;2023-07-24T04:51:53;19.00;99.90
15700;DHT22;7950;42.744;23.174;2023-07-24T04:54:21;19.20;99.90
15700;DHT22;7950;42.744;23.174;2023-07-24T04:56:50;19.40;99.90
15700;DHT22;7950;42.744;23.174;2023-07-24T04:59:19;19.60;99.90
15700;DHT22;7950;42.744;23.174;2023-07-24T05:01:48;19.70;99.90
15700;DHT22;7950;42.744;23.174;2023-07-24T05:04:17;19.90;99.90
15700;DHT22;7950;42.744;23.174;2023-07-24T05:06:47;20.00;99.90
15700;DHT22;7950;42.744;23.174;2023-07-24T05:09:16;20.00;99.90
15700;DHT22;7950;42.744;23.174;2023-07-24T05:11:45;20.10;99.90
15700;DHT22;7950;42.744;23.174;2023-07-24T05:14:13;20.30;99.90
15700;DHT22;7950;42.744;23.174;2023-07-24T05:16:42;20.30;99.90
15700;DHT22;7950;42.744;23.174;2023-07-24T05:19:11;20.50;99.90
15700;DHT22;7950;42.744;23.174;2023-07-24T05:21:40;20.60;99.90
15700;DHT22;7950;42.744;23.174;2023-07-24T05:24:10;20.70;99.90
15700;DHT22;7950;42.744;23.174;2023-07-24T05:26:38;20.80;99.90
15700;DHT22;7950;42.744;23.174;2023-07-24T05:29:07;20.80;99.90
15700;DHT22;7950;42.744;23.174;2023-07-24T05:31:36;20.80;99.90
15700;DHT22;7950;42.744;23.174;2023-07-24T05:34:05;20.90;99.90
15700;DHT22;7950;42.744;23.174;2023-07-24T05:36:34;21.00;99.90
15700;DHT22;7950;42.744;23.174;2023-07-24T05:39:03;21.10;99.90
15700;DHT22;7950;42.744;23.174;2023-07-24T05:41:33;21.30;99.90
15700;DHT22;7950;42.744;23.174;2023-07-24T05:44:05;21.40;99.90
15700;DHT22;7950;42.744;23.174;2023-07-24T05:46:34;21.50;99.90
15700;DHT22;7950;42.744;23.174;2023-07-24T05:49:03;21.60;99.90
15700;DHT22;7950;42.744;23.174;2023-07-24T05:51:32;21.80;99.90
15700;DHT22;7950;42.744;23.174;2023-07-24T05:54:00;22.10;99.90
15700;DHT22;7950;42.744;23.174;2023-07-24T05:56:29;22.30;99.90
15700;DHT22;7950;42.744;23.174;2023-07-24T05:59:00;22.50;99.90
15700;DHT22;7950;42.744;23.174;2023-07-24T06:01:29;22.60;99.90
15700;DHT22;7950;42.744;23.174;2023-07-24T06:03:58;22.60;99.90
15700;DHT22;7950;42.744;23.174;2023-07-24T06:06:27;22.70;99.90
15700;DHT22;7950;42.744;23.174;2023-07-24T06:08:57;22.80;99.90
15700;DHT22;7950;42.744;23.174;2023-07-24T06:11:24;23.00;99.90
15700;DHT22;7950;42.744;23.174;2023-07-24T06:13:54;23.10;99.90
15700;DHT22;7950;42.744;23.174;2023-07-24T06:16:24;23.20;99.90
15700;DHT22;7950;42.744;23.174;2023-07-24T06:18:54;23.40;99.90
15700;DHT22;7950;42.744;23.174;2023-07-24T06:21:22;23.50;99.90
15700;DHT22;7950;42.744;23.174;2023-07-24T06:23:51;23.70;99.90
15700;DHT22;7950;42.744;23.174;2023-07-24T06:26:20;23.80;99.90
15700;DHT22;7950;42.744;23.174;2023-07-24T06:28:49;23.90;99.90
15700;DHT22;7950;42.744;23.174;2023-07-24T06:31:18;24.00;99.90
15700;DHT22;7950;42.744;23.174;2023-07-24T06:33:48;24.10;99.90
15700;DHT22;7950;42.744;23.174;2023-07-24T06:36:17;24.20;99.90
15700;DHT22;7950;42.744;23.174;2023-07-24T06:38:45;24.20;99.90
15700;DHT22;7950;42.744;23.174;2023-07-24T06:41:14;24.30;99.90
15700;DHT22;7950;42.744;23.174;2023-07-24T06:43:43;24.40;99.90
15700;DHT22;7950;42.744;23.174;2023-07-24T06:46:12;24.50;99.90
15700;DHT22;7950;42.744;23.174;2023-07-24T06:48:41;24.60;99.90
15700;DHT22;7950;42.744;23.174;2023-07-24T06:51:11;24.60;99.90
15700;DHT22;7950;42.744;23.174;2023-07-24T06:53:40;24.70;99.90
15700;DHT22;7950;42.744;23.174;2023-07-24T06:56:09;24.80;99.90
15700;DHT22;7950;42.744;23.174;2023-07-24T06:58:37;24.90;99.90
15700;DHT22;7950;42.744;23.174;2023-07-24T07:01:06;25.00;99.90
15700;DHT22;7950;42.744;23.174;2023-07-24T07:03:35;25.10;99.90
15700;DHT22;7950;42.744;23.174;2023-07-24T07:06:04;25.30;99.90
15700;DHT22;7950;42.744;23.174;2023-07-24T07:08:35;25.40;99.90
15700;DHT22;7950;42.744;23.174;2023-07-24T07:11:04;25.50;99.90
15700;DHT22;7950;42.744;23.174;2023-07-24T07:13:33;25.50;99.90
15700;DHT22;7950;42.744;23.174;2023-07-24T07:16:02;25.50;99.90
15700;DHT22;7950;42.744;23.174;2023-07-24T07:18:32;25.60;99.90
15700;DHT22;7950;42.744;23.174;2023-07-24T07:21:00;25.70;99.90
15700;DHT22;7950;42.744;23.174;2023-07-24T07:23:29;25.70;99.90
15700;DHT22;7950;42.744;23.174;2023-07-24T07:25:59;25.70;99.90
15700;DHT22;7950;42.744;23.174;2023-07-24T07:28:29;25.80;99.90
15700;DHT22;7950;42.744;23.174;2023-07-24T07:30:57;26.00;99.90
15700;DHT22;7950;42.744;23.174;2023-07-24T07:33:26;26.10;97.90
15700;DHT22;7950;42.744;23.174;2023-07-24T07:35:56;26.10;99.00
15700;DHT22;7950;42.744;23.174;2023-07-24T07:38:25;26.20;98.60
15700;DHT22;7950;42.744;23.174;2023-07-24T07:40:54;26.30;99.90
15700;DHT22;7950;42.744;23.174;2023-07-24T07:43:24;26.50;99.90
15700;DHT22;7950;42.744;23.174;2023-07-24T07:45:52;26.70;99.90
15700;DHT22;7950;42.744;23.174;2023-07-24T07:48:23;27.00;98.80
15700;DHT22;7950;42.744;23.174;2023-07-24T07:50:52;27.00;96.00
15700;DHT22;7950;42.744;23.174;2023-07-24T07:53:21;27.10;98.00
15700;DHT22;7950;42.744;23.174;2023-07-24T07:55:55;27.20;97.60
15700;DHT22;7950;42.744;23.174;2023-07-24T07:58:26;27.40;93.90
15700;DHT22;7950;42.744;23.174;2023-07-24T08:00:55;27.30;92.00
15700;DHT22;7950;42.744;23.174;2023-07-24T08:03:24;27.30;93.60
15700;DHT22;7950;42.744;23.174;2023-07-24T08:05:56;27.30;92.80
15700;DHT22;7950;42.744;23.174;2023-07-24T08:08:26;27.40;92.10
15700;DHT22;7950;42.744;23.174;2023-07-24T08:10:54;27.50;92.00
15700;DHT22;7950;42.744;23.174;2023-07-24T08:13:23;27.60;91.00
15700;DHT22;7950;42.744;23.174;2023-07-24T08:15:54;27.40;90.30
15700;DHT22;7950;42.744;23.174;2023-07-24T08:18:22;27.40;92.90
15700;DHT22;7950;42.744;23.174;2023-07-24T08:20:51;27.60;91.70
15700;DHT22;7950;42.744;23.174;2023-07-24T08:23:20;27.60;90.60
15700;DHT22;7950;42.744;23.174;2023-07-24T08:25:52;27.60;90.30
15700;DHT22;7950;42.744;23.174;2023-07-24T08:28:21;27.80;89.70
15700;DHT22;7950;42.744;23.174;2023-07-24T08:30:57;27.90;89.50
15700;DHT22;7950;42.744;23.174;2023-07-24T08:33:32;28.00;88.70
15700;DHT22;7950;42.744;23.174;2023-07-24T08:36:01;28.20;85.10
15700;DHT22;7950;42.744;23.174;2023-07-24T08:38:31;28.30;89.70
15700;DHT22;7950;42.744;23.174;2023-07-24T08:41:01;28.40;84.50
15700;DHT22;7950;42.744;23.174;2023-07-24T08:43:30;28.40;83.40
15700;DHT22;7950;42.744;23.174;2023-07-24T08:46:02;28.50;83.50
15700;DHT22;7950;42.744;23.174;2023-07-24T08:48:32;28.60;81.80
15700;DHT22;7950;42.744;23.174;2023-07-24T08:51:04;28.70;84.70
15700;DHT22;7950;42.744;23.174;2023-07-24T08:53:34;29.00;82.90
15700;DHT22;7950;42.744;23.174;2023-07-24T08:56:04;29.20;81.30
15700;DHT22;7950;42.744;23.174;2023-07-24T08:58:34;29.40;81.80
15700;DHT22;7950;42.744;23.174;2023-07-24T09:01:04;29.50;78.30
15700;DHT22;7950;42.744;23.174;2023-07-24T09:03:34;29.50;77.00
15700;DHT22;7950;42.744;23.174;2023-07-24T09:06:03;29.50;77.30
15700;DHT22;7950;42.744;23.174;2023-07-24T09:08:34;29.60;77.60
15700;DHT22;7950;42.744;23.174;2023-07-24T09:11:05;29.80;76.60
15700;DHT22;7950;42.744;23.174;2023-07-24T09:13:37;29.90;76.10
15700;DHT22;7950;42.744;23.174;2023-07-24T09:16:20;30.00;72.90
15700;DHT22;7950;42.744;23.174;2023-07-24T09:18:50;30.00;72.30
15700;DHT22;7950;42.744;23.174;2023-07-24T09:21:29;30.10;74.70
15700;DHT22;7950;42.744;23.174;2023-07-24T09:24:09;30.20;73.30
15700;DHT22;7950;42.744;23.174;2023-07-24T09:26:49;30.30;72.60
15700;DHT22;7950;42.744;23.174;2023-07-24T09:29:30;30.50;72.20
15700;DHT22;7950;42.744;23.174;2023-07-24T09:32:01;30.70;70.10
15700;DHT22;7950;42.744;23.174;2023-07-24T09:34:30;30.70;69.20
15700;DHT22;7950;42.744;23.174;2023-07-24T09:36:59;30.70;70.60
15700;DHT22;7950;42.744;23.174;2023-07-24T09:39:28;30.80;68.30
15700;DHT22;7950;42.744;23.174;2023-07-24T09:42:03;31.00;68.60
15700;DHT22;7950;42.744;23.174;2023-07-24T09:44:32;31.00;68.40
15700;DHT22;7950;42.744;23.174;2023-07-24T09:47:03;31.10;67.90
15700;DHT22;7950;42.744;23.174;2023-07-24T09:49:52;31.10;66.10
15700;DHT22;7950;42.744;23.174;2023-07-24T09:52:21;31.20;68.30
15700;DHT22;7950;42.744;23.174;2023-07-24T09:54:58;31.30;65.70
15700;DHT22;7950;42.744;23.174;2023-07-24T09:57:29;31.30;64.00
15700;DHT22;7950;42.744;23.174;2023-07-24T09:59:59;31.30;65.20
15700;DHT22;7950;42.744;23.174;2023-07-24T10:02:30;31.30;64.80
15700;DHT22;7950;42.744;23.174;2023-07-24T10:04:59;31.40;63.90
15700;DHT22;7950;42.744;23.174;2023-07-24T10:07:29;31.50;64.90
15700;DHT22;7950;42.744;23.174;2023-07-24T10:10:00;31.70;65.10
15700;DHT22;7950;42.744;23.174;2023-07-24T10:12:30;31.90;63.00
15700;DHT22;7950;42.744;23.174;2023-07-24T10:14:59;32.00;63.50
15700;DHT22;7950;42.744;23.174;2023-07-24T10:17:37;32.00;62.00
15700;DHT22;7950;42.744;23.174;2023-07-24T10:20:08;32.00;63.50
15700;DHT22;7950;42.744;23.174;2023-07-24T10:22:41;32.20;63.60
15700;DHT22;7950;42.744;23.174;2023-07-24T10:25:10;32.40;62.60
15700;DHT22;7950;42.744;23.174;2023-07-24T10:27:41;32.50;62.90
15700;DHT22;7950;42.744;23.174;2023-07-24T10:30:11;32.60;60.70
15700;DHT22;7950;42.744;23.174;2023-07-24T10:33:08;32.70;60.20
15700;DHT22;7950;42.744;23.174;2023-07-24T10:35:40;32.90;59.60
15700;DHT22;7950;42.744;23.174;2023-07-24T10:38:10;33.00;60.40
15700;DHT22;7950;42.744;23.174;2023-07-24T10:40:39;33.20;59.90
15700;DHT22;7950;42.744;23.174;2023-07-24T10:43:11;33.30;60.40
15700;DHT22;7950;42.744;23.174;2023-07-24T10:45:47;33.20;58.40
15700;DHT22;7950;42.744;23.174;2023-07-24T10:48:20;33.20;58.50
15700;DHT22;7950;42.744;23.174;2023-07-24T10:50:51;33.10;58.10
15700;DHT22;7950;42.744;23.174;2023-07-24T10:53:22;33.00;58.10
15700;DHT22;7950;42.744;23.174;2023-07-24T10:55:51;32.90;58.10
15700;DHT22;7950;42.744;23.174;2023-07-24T10:58:20;32.90;59.00
15700;DHT22;7950;42.744;23.174;2023-07-24T11:00:53;33.10;59.40
15700;DHT22;7950;42.744;23.174;2023-07-24T11:03:24;33.20;59.10
15700;DHT22;7950;42.744;23.174;2023-07-24T11:05:54;33.30;58.90
15700;DHT22;7950;42.744;23.174;2023-07-24T11:08:22;33.50;58.40
15700;DHT22;7950;42.744;23.174;2023-07-24T11:10:53;33.50;57.30
15700;DHT22;7950;42.744;23.174;2023-07-24T11:13:24;33.30;57.20
15700;DHT22;7950;42.744;23.174;2023-07-24T11:15:55;33.20;57.60
15700;DHT22;7950;42.744;23.174;2023-07-24T11:18:25;33.20;57.60
15700;DHT22;7950;42.744;23.174;2023-07-24T11:21:15;33.10;56.00
15700;DHT22;7950;42.744;23.174;2023-07-24T11:23:49;32.80;57.20
15700;DHT22;7950;42.744;23.174;2023-07-24T11:26:19;32.70;58.40
15700;DHT22;7950;42.744;23.174;2023-07-24T11:28:50;32.90;58.40
15700;DHT22;7950;42.744;23.174;2023-07-24T11:31:19;33.10;56.60
15700;DHT22;7950;42.744;23.174;2023-07-24T11:33:51;33.20;55.70
15700;DHT22;7950;42.744;23.174;2023-07-24T11:36:22;33.20;55.30
15700;DHT22;7950;42.744;23.174;2023-07-24T11:38:51;33.20;55.10
15700;DHT22;7950;42.744;23.174;2023-07-24T11:41:20;33.30;55.60
15700;DHT22;7950;42.744;23.174;2023-07-24T11:43:49;33.50;55.50
15700;DHT22;7950;42.744;23.174;2023-07-24T11:46:26;33.50;56.60
15700;DHT22;7950;42.744;23.174;2023-07-24T11:49:00;33.70;53.90
15700;DHT22;7950;42.744;23.174;2023-07-24T11:51:29;33.80;51.30
15700;DHT22;7950;42.744;23.174;2023-07-24T11:54:05;33.80;51.90
15700;DHT22;7950;42.744;23.174;2023-07-24T11:56:35;33.70;50.80
15700;DHT22;7950;42.744;23.174;2023-07-24T11:59:11;33.70;52.50
15700;DHT22;7950;42.744;23.174;2023-07-24T12:01:40;33.80;52.20
15700;DHT22;7950;42.744;23.174;2023-07-24T12:04:10;33.70;52.60
15700;DHT22;7950;42.744;23.174;2023-07-24T12:06:39;33.80;52.20
15700;DHT22;7950;42.744;23.174;2023-07-24T12:09:11;33.90;52.50
15700;DHT22;7950;42.744;23.174;2023-07-24T12:11:39;33.80;51.60
15700;DHT22;7950;42.744;23.174;2023-07-24T12:14:12;33.50;52.90
15700;DHT22;7950;42.744;23.174;2023-07-24T12:16:42;33.30;54.70
15700;DHT22;7950;42.744;23.174;2023-07-24T12:19:12;33.50;55.20
15700;DHT22;7950;42.744;23.174;2023-07-24T12:21:41;33.70;54.90
15700;DHT22;7950;42.744;23.174;2023-07-24T12:24:10;33.80;55.30
15700;DHT22;7950;42.744;23.174;2023-07-24T12:26:38;34.00;53.60
15700;DHT22;7950;42.744;23.174;2023-07-24T12:29:07;34.20;52.10
15700;DHT22;7950;42.744;23.174;2023-07-24T12:31:36;34.30;53.00
15700;DHT22;7950;42.744;23.174;2023-07-24T12:34:05;34.30;52.50
15700;DHT22;7950;42.744;23.174;2023-07-24T12:36:35;34.10;51.50
15700;DHT22;7950;42.744;23.174;2023-07-24T12:39:04;34.10;51.80
15700;DHT22;7950;42.744;23.174;2023-07-24T12:41:32;34.20;52.20
15700;DHT22;7950;42.744;23.174;2023-07-24T12:44:01;34.30;46.80
15700;DHT22;7950;42.744;23.174;2023-07-24T12:46:30;34.30;48.20
15700;DHT22;7950;42.744;23.174;2023-07-24T12:48:59;34.30;48.80
15700;DHT22;7950;42.744;23.174;2023-07-24T12:51:28;34.30;48.60
15700;DHT22;7950;42.744;23.174;2023-07-24T12:53:58;34.30;47.50
15700;DHT22;7950;42.744;23.174;2023-07-24T12:56:47;34.20;43.50
15700;DHT22;7950;42.744;23.174;2023-07-24T12:59:16;34.10;44.10
15700;DHT22;7950;42.744;23.174;2023-07-24T13:01:44;34.20;48.40
15700;DHT22;7950;42.744;23.174;2023-07-24T13:04:13;34.30;48.90
15700;DHT22;7950;42.744;23.174;2023-07-24T13:06:41;34.20;48.30
15700;DHT22;7950;42.744;23.174;2023-07-24T13:09:12;34.20;49.10
15700;DHT22;7950;42.744;23.174;2023-07-24T13:11:40;34.20;49.10
15700;DHT22;7950;42.744;23.174;2023-07-24T13:14:09;34.30;48.60
15700;DHT22;7950;42.744;23.174;2023-07-24T13:16:38;34.30;46.60
15700;DHT22;7950;42.744;23.174;2023-07-24T13:19:07;34.30;45.50
15700;DHT22;7950;42.744;23.174;2023-07-24T13:21:35;34.30;44.80
15700;DHT22;7950;42.744;23.174;2023-07-24T13:24:05;34.30;43.50
15700;DHT22;7950;42.744;23.174;2023-07-24T13:26:35;34.20;42.50
15700;DHT22;7950;42.744;23.174;2023-07-24T13:29:04;34.10;41.90
15700;DHT22;7950;42.744;23.174;2023-07-24T13:31:33;34.20;42.50
15700;DHT22;7950;42.744;23.174;2023-07-24T13:34:02;34.30;42.90
15700;DHT22;7950;42.744;23.174;2023-07-24T13:36:31;34.30;41.10
15700;DHT22;7950;42.744;23.174;2023-07-24T13:38:59;34.40;40.00
15700;DHT22;7950;42.744;23.174;2023-07-24T13:41:28;34.40;39.60
15700;DHT22;7950;42.744;23.174;2023-07-24T13:43:58;34.30;38.30
15700;DHT22;7950;42.744;23.174;2023-07-24T13:46:27;34.30;40.60
15700;DHT22;7950;42.744;23.174;2023-07-24T13:48:56;34.30;40.30
15700;DHT22;7950;42.744;23.174;2023-07-24T13:51:25;34.30;40.80
15700;DHT22;7950;42.744;23.174;2023-07-24T13:53:54;34.30;40.90
15700;DHT22;7950;42.744;23.174;2023-07-24T13:56:23;34.20;40.50
15700;DHT22;7950;42.744;23.174;2023-07-24T13:58:52;34.10;39.60
15700;DHT22;7950;42.744;23.174;2023-07-24T14:01:22;34.10;38.90
15700;DHT22;7950;42.744;23.174;2023-07-24T14:03:50;34.00;39.60
15700;DHT22;7950;42.744;23.174;2023-07-24T14:06:19;33.90;40.60
15700;DHT22;7950;42.744;23.174;2023-07-24T14:08:49;34.00;41.10
15700;DHT22;7950;42.744;23.174;2023-07-24T14:11:17;33.90;41.70
15700;DHT22;7950;42.744;23.174;2023-07-24T14:13:46;33.80;41.60
15700;DHT22;7950;42.744;23.174;2023-07-24T14:16:15;33.90;40.90
15700;DHT22;7950;42.744;23.174;2023-07-24T14:18:46;33.90;40.00
15700;DHT22;7950;42.744;23.174;2023-07-24T14:21:15;33.90;40.10
15700;DHT22;7950;42.744;23.174;2023-07-24T14:23:43;33.90;40.50
15700;DHT22;7950;42.744;23.174;2023-07-24T14:26:12;33.90;39.70
15700;DHT22;7950;42.744;23.174;2023-07-24T14:28:40;33.90;39.10
15700;DHT22;7950;42.744;23.174;2023-07-24T14:31:09;33.80;40.50
15700;DHT22;7950;42.744;23.174;2023-07-24T14:33:38;33.80;40.50
15700;DHT22;7950;42.744;23.174;2023-07-24T14:36:08;33.80;41.00
15700;DHT22;7950;42.744;23.174;2023-07-24T14:38:37;33.70;41.50
15700;DHT22;7950;42.744;23.174;2023-07-24T14:41:06;33.70;41.10
15700;DHT22;7950;42.744;23.174;2023-07-24T14:43:34;33.60;41.10
15700;DHT22;7950;42.744;23.174;2023-07-24T14:46:03;33.50;39.80
15700;DHT22;7950;42.744;23.174;2023-07-24T14:48:32;33.50;41.00
15700;DHT22;7950;42.744;23.174;2023-07-24T14:51:00;33.60;41.10
15700;DHT22;7950;42.744;23.174;2023-07-24T14:53:31;33.60;41.30
15700;DHT22;7950;42.744;23.174;2023-07-24T14:56:00;33.70;42.00
15700;DHT22;7950;42.744;23.174;2023-07-24T14:58:28;33.60;41.30
15700;DHT22;7950;42.744;23.174;2023-07-24T15:00:57;33.60;41.00
15700;DHT22;7950;42.744;23.174;2023-07-24T15:03:26;33.50;40.20
15700;DHT22;7950;42.744;23.174;2023-07-24T15:05:54;33.30;40.70
15700;DHT22;7950;42.744;23.174;2023-07-24T15:08:23;33.30;41.20
15700;DHT22;7950;42.744;23.174;2023-07-24T15:10:53;33.20;41.10
15700;DHT22;7950;42.744;23.174;2023-07-24T15:13:22;33.20;39.90
15700;DHT22;7950;42.744;23.174;2023-07-24T15:15:51;33.20;40.50
15700;DHT22;7950;42.744;23.174;2023-07-24T15:18:20;33.20;41.60
15700;DHT22;7950;42.744;23.174;2023-07-24T15:20:48;33.30;42.00
15700;DHT22;7950;42.744;23.174;2023-07-24T15:23:17;33.20;42.00
15700;DHT22;7950;42.744;23.174;2023-07-24T15:25:46;33.10;41.50
15700;DHT22;7950;42.744;23.174;2023-07-24T15:28:16;33.00;41.50
15700;DHT22;7950;42.744;23.174;2023-07-24T15:30:45;33.00;41.60
15700;DHT22;7950;42.744;23.174;2023-07-24T15:33:15;32.90;42.10
15700;DHT22;7950;42.744;23.174;2023-07-24T15:35:44;33.00;42.80
15700;DHT22;7950;42.744;23.174;2023-07-24T15:38:13;32.90;42.20
15700;DHT22;7950;42.744;23.174;2023-07-24T15:40:42;32.90;42.50
15700;DHT22;7950;42.744;23.174;2023-07-24T15:43:11;32.70;42.50
15700;DHT22;7950;42.744;23.174;2023-07-24T15:45:41;32.70;41.70
15700;DHT22;7950;42.744;23.174;2023-07-24T15:48:10;32.60;43.10